Historyczne dane pomiarowe

Dodano dane terminowe – wersja testowa.

Dane z okresu 1951-2019

Wersja bazy: 1.34 [2019-03-16, lista zmian], aktualizacja planowana na 2019-04-15

Dane meteo z obszaru Polski uzyskane na podstawie danych udostępnionych przez Instytut Meteorologii i Gospodarki Wodnej – Państwowy Instytut Badawczy.

 

Wybierz Datę:    

       

TemperaturaWilgotnośćWiatrCiśnienieOpadyŚniegCzas trwania zjawisk
 Stacja t tx tn tng RH VA  wxwx mslp ppp RRR   cm mm wxwxwxwxwxwxwx
1994-08-14 16.3 20.0 10.5- 62.3- 5.0 2.7---- 0.1------------
1994-08-13 17.9 23.5 12.5- 74.3- 6.7 3.0---- 4.4------------
1994-08-12 17.1 22.0 13.5- 82.5- 7.0 1.7---- 5.3------------
1994-08-11 18.2 26.0 11.9- 89.5- 5.7 2.0---- 5.0------------
1994-08-10 19.5 27.1 11.5- 71.8- 1.0 2.0---- 0.0------------
1994-08-09 17.8 24.6 14.9- 90.8- 7.7 2.3---- 42.0------------
1994-08-08 21.5 31.1 15.5- 75.3- 6.7 2.0---- 0.0------------
1994-08-07 21.7 30.5 10.7- 68.5- 6.0 2.3---- 0.0------------
1994-08-06 21.7 32.1 11.5- 60.3- 1.7 2.3---- 0.0------------
1994-08-05 22.5 30.1 13.9- 64.5- 0.7 2.0---- 0.0------------
1994-08-04 21.8 28.1 15.5- 73.5- 6.3 2.0---- 0.0------------
1994-08-03 23.3 30.1 15.9- 69.3- 6.7 2.0---- 3.6------------
1994-08-02 24.5 34.1 14.5- 58.8- 1.3 2.3---- 0.0------------
1994-08-01 23.6 34.1 13.5- 55.8- 0.7 2.0---- 0.0------------
1994-07-31 23.3 34.1 11.2- 56.8- 0.0 1.3---- 0.0------------
1994-07-30 23.7 34.1 11.9- 55.5- 0.0 2.3---- 0.0------------
1994-07-29 22.8 33.1 11.9- 55.5- 0.0 2.0---- 0.0------------
1994-07-28 23.2 32.6 13.5- 56.0- 0.7 2.3---- 0.0------------
1994-07-27 23.1 32.6 13.5- 57.5- 0.3 1.0---- 0.0------------
1994-07-26 22.8 32.1 13.5- 57.8- 1.7 1.3---- 0.0------------
1994-07-25 22.2 32.4 10.9- 56.8- 3.3 1.3---- 0.0------------
1994-07-24 21.3 30.1 9.8- 56.5- 0.7 1.3---- 0.0------------
1994-07-23 19.3 28.1 9.1- 58.8- 1.0 2.7---- 0.0------------
1994-07-22 19.1 28.1 8.6- 55.0- 1.0 2.3---- 0.0------------
1994-07-21 17.4 25.4 7.6- 59.8- 0.0 2.3---- 0.0------------
1994-07-20 16.8 23.0 8.6- 64.3- 2.0 2.7---- 0.0------------
1994-07-19 18.3 25.0 11.5- 72.0- 6.0 1.3---- 0.0------------
1994-07-18 20.7 27.1 16.0- 76.5- 5.0 1.3---- 0.0------------
1994-07-17 20.8 28.1 13.5- 79.5- 5.3 2.3---- 1.2------------
1994-07-16 21.1 29.5 13.5- 74.0- 2.7 2.3---- 0.0------------
1994-07-15 20.1 27.1 11.5- 74.0- 3.3 2.0---- 0.0------------
1994-07-14 18.6 27.6 11.5- 77.0- 6.0 2.3---- 0.1------------
1994-07-13 18.5 26.0 9.6- 73.0- 3.7 2.0---- 0.0------------
1994-07-12 19.2 26.0 13.9- 75.0- 4.7 1.7---- 0.0------------
1994-07-11 16.9 23.0 10.1- 82.5- 5.3 1.3---- 1.5------------
1994-07-10 15.1 19.0 10.5- 87.5- 8.0 1.0---- 0.8------------
1994-07-09 14.1 20.0 9.6- 73.3- 6.3 3.0---- 10.2------------
1994-07-08 18.1 22.0 14.3- 66.5- 5.3 2.3---- 0.0------------
1994-07-07 17.0 26.0 9.5- 73.3- 7.0 0.7---- 9.8------------
1994-07-06 20.0 25.0 12.0- 58.8- 1.7 1.7---- 0.0------------
1994-07-05 19.1 25.0 10.0- 67.3- 7.3 1.3---- 0.1------------
1994-07-04 19.6 28.1 8.6- 58.5- 1.0 2.0---- 0.0------------
1994-07-03 17.6 26.0 7.6- 61.0- 0.7 2.0---- 0.0------------
1994-07-02 16.8 24.0 8.6- 65.8- 0.0 2.3---- 0.0------------
1994-07-01 20.1 23.0 16.5- 61.8- 3.0 1.7---- 0.0------------
1994-06-30 22.2 29.5 16.5- 82.8- 4.7 2.3---- 3.0------------
1994-06-29 22.4 30.6 14.5- 74.5- 2.3 0.7---- 0.0------------
1994-06-28 22.7 29.6 13.5- 72.5- 2.3 1.7---- 0.0------------
1994-06-27 21.7 32.1 11.5- 67.5- 2.3 2.0---- 0.0------------
1994-06-26 18.6 30.1 6.6- 60.8- 0.3 2.0---- 0.0------------
1994-06-25 14.3 23.0 2.8- 60.5- 0.0 2.3---- 0.0------------
1994-06-24 13.7 21.0 3.4- 53.3- 0.0 4.0---- 0.0------------
1994-06-23 17.3 25.1 14.0- 61.3- 4.3 5.7---- 0.0------------
1994-06-22 16.3 27.1 6.6- 64.8- 3.3 2.7---- 0.0------------
1994-06-21 15.1 21.0 6.2- 67.0- 1.0 2.3---- 0.0------------
1994-06-20 16.9 25.0 8.6- 66.8- 2.7 3.0---- 0.0------------
1994-06-19 17.9 27.1 10.0- 66.5- 4.7 2.3---- 0.0------------
1994-06-18 10.9 20.5 3.6- 75.5- 5.3 1.7---- 12.2------------
1994-06-17 11.4 15.0 7.0- 66.8- 7.7 4.0---- 0.0------------
1994-06-16 12.2 17.6 5.0- 73.0- 5.7 3.3---- 0.1------------
770.5 ms

 

Źródłem pochodzenia danych jest Instytut Meteorologii i Gospodarki Wodnej – Państwowy Instytut Badawczy. Dane Instytutu Meteorologii i Gospodarki Wodnej – Państwowego Instytutu Badawczego zostały przetworzone.

Dane źródłowe można odnaleźć na stronie https://dane.imgw.pl